sensor_id;sensor_type;location;lat;lon;timestamp;P1;durP1;ratioP1;P2;durP2;ratioP2
22812;SDS011;11573;51.334;3.244;2023-11-21T00:00:14;11.55;;;5.97;;
22812;SDS011;11573;51.334;3.244;2023-11-21T00:02:41;18.25;;;5.53;;
22812;SDS011;11573;51.334;3.244;2023-11-21T00:05:12;19.30;;;6.13;;
22812;SDS011;11573;51.334;3.244;2023-11-21T00:07:42;18.45;;;5.88;;
22812;SDS011;11573;51.334;3.244;2023-11-21T00:10:10;16.52;;;5.82;;
22812;SDS011;11573;51.334;3.244;2023-11-21T00:12:41;17.63;;;5.15;;
22812;SDS011;11573;51.334;3.244;2023-11-21T00:15:09;11.52;;;4.68;;
22812;SDS011;11573;51.334;3.244;2023-11-21T00:17:37;13.38;;;5.10;;
22812;SDS011;11573;51.334;3.244;2023-11-21T00:20:05;15.68;;;4.88;;
22812;SDS011;11573;51.334;3.244;2023-11-21T00:22:34;13.02;;;3.58;;
22812;SDS011;11573;51.334;3.244;2023-11-21T00:25:02;9.60;;;3.72;;
22812;SDS011;11573;51.334;3.244;2023-11-21T00:27:30;6.75;;;3.20;;
22812;SDS011;11573;51.334;3.244;2023-11-21T00:29:57;7.72;;;3.45;;
22812;SDS011;11573;51.334;3.244;2023-11-21T00:32:24;8.20;;;2.47;;
22812;SDS011;11573;51.334;3.244;2023-11-21T00:34:51;9.23;;;3.13;;
22812;SDS011;11573;51.334;3.244;2023-11-21T00:37:18;6.90;;;2.50;;
22812;SDS011;11573;51.334;3.244;2023-11-21T00:39:45;7.97;;;2.63;;
22812;SDS011;11573;51.334;3.244;2023-11-21T00:42:12;5.35;;;2.40;;
22812;SDS011;11573;51.334;3.244;2023-11-21T00:44:39;4.20;;;2.30;;
22812;SDS011;11573;51.334;3.244;2023-11-21T00:47:07;4.80;;;2.47;;
22812;SDS011;11573;51.334;3.244;2023-11-21T00:49:34;7.38;;;2.63;;
22812;SDS011;11573;51.334;3.244;2023-11-21T00:52:01;4.72;;;2.72;;
22812;SDS011;11573;51.334;3.244;2023-11-21T00:54:29;4.18;;;2.70;;
22812;SDS011;11573;51.334;3.244;2023-11-21T00:57:01;5.85;;;2.33;;
22812;SDS011;11573;51.334;3.244;2023-11-21T00:59:28;4.00;;;2.15;;
22812;SDS011;11573;51.334;3.244;2023-11-21T01:01:55;5.78;;;2.22;;
22812;SDS011;11573;51.334;3.244;2023-11-21T01:04:22;6.13;;;2.50;;
22812;SDS011;11573;51.334;3.244;2023-11-21T01:06:49;7.22;;;2.95;;
22812;SDS011;11573;51.334;3.244;2023-11-21T01:09:16;5.82;;;2.78;;
22812;SDS011;11573;51.334;3.244;2023-11-21T01:11:44;6.85;;;3.00;;
22812;SDS011;11573;51.334;3.244;2023-11-21T01:14:13;8.40;;;2.97;;
22812;SDS011;11573;51.334;3.244;2023-11-21T01:16:40;5.68;;;2.67;;
22812;SDS011;11573;51.334;3.244;2023-11-21T01:19:07;3.25;;;2.30;;
22812;SDS011;11573;51.334;3.244;2023-11-21T01:21:36;4.05;;;2.60;;
22812;SDS011;11573;51.334;3.244;2023-11-21T01:24:03;4.65;;;2.45;;
22812;SDS011;11573;51.334;3.244;2023-11-21T01:26:33;4.38;;;2.50;;
22812;SDS011;11573;51.334;3.244;2023-11-21T01:29:00;9.55;;;2.70;;
22812;SDS011;11573;51.334;3.244;2023-11-21T01:31:27;12.25;;;2.97;;
22812;SDS011;11573;51.334;3.244;2023-11-21T01:33:56;4.43;;;2.88;;
22812;SDS011;11573;51.334;3.244;2023-11-21T01:36:29;5.35;;;3.20;;
22812;SDS011;11573;51.334;3.244;2023-11-21T01:38:59;4.18;;;2.67;;
22812;SDS011;11573;51.334;3.244;2023-11-21T01:41:27;4.72;;;2.92;;
22812;SDS011;11573;51.334;3.244;2023-11-21T01:43:57;4.32;;;2.80;;
22812;SDS011;11573;51.334;3.244;2023-11-21T01:46:24;4.18;;;2.60;;
22812;SDS011;11573;51.334;3.244;2023-11-21T01:48:51;9.25;;;3.15;;
22812;SDS011;11573;51.334;3.244;2023-11-21T01:51:20;5.47;;;2.92;;
22812;SDS011;11573;51.334;3.244;2023-11-21T01:53:47;5.22;;;3.47;;
22812;SDS011;11573;51.334;3.244;2023-11-21T01:56:15;4.80;;;3.28;;
22812;SDS011;11573;51.334;3.244;2023-11-21T01:58:43;7.45;;;4.03;;
22812;SDS011;11573;51.334;3.244;2023-11-21T02:01:10;6.68;;;4.18;;
22812;SDS011;11573;51.334;3.244;2023-11-21T02:03:37;8.30;;;4.45;;
22812;SDS011;11573;51.334;3.244;2023-11-21T02:06:05;12.23;;;4.85;;
22812;SDS011;11573;51.334;3.244;2023-11-21T02:08:32;12.57;;;4.70;;
22812;SDS011;11573;51.334;3.244;2023-11-21T02:10:59;6.85;;;5.15;;
22812;SDS011;11573;51.334;3.244;2023-11-21T02:13:26;9.13;;;5.15;;
22812;SDS011;11573;51.334;3.244;2023-11-21T02:15:53;6.88;;;4.70;;
22812;SDS011;11573;51.334;3.244;2023-11-21T02:18:21;8.02;;;4.88;;
22812;SDS011;11573;51.334;3.244;2023-11-21T02:20:48;6.63;;;4.60;;
22812;SDS011;11573;51.334;3.244;2023-11-21T02:23:15;7.80;;;5.22;;
22812;SDS011;11573;51.334;3.244;2023-11-21T02:25:42;8.13;;;5.28;;
22812;SDS011;11573;51.334;3.244;2023-11-21T02:28:10;10.93;;;5.85;;
22812;SDS011;11573;51.334;3.244;2023-11-21T02:30:39;11.52;;;5.60;;
22812;SDS011;11573;51.334;3.244;2023-11-21T02:33:06;11.07;;;5.88;;
22812;SDS011;11573;51.334;3.244;2023-11-21T02:35:33;10.02;;;5.72;;
22812;SDS011;11573;51.334;3.244;2023-11-21T02:38:01;7.28;;;5.10;;
22812;SDS011;11573;51.334;3.244;2023-11-21T02:40:29;9.63;;;4.82;;
22812;SDS011;11573;51.334;3.244;2023-11-21T02:42:57;11.48;;;5.70;;
22812;SDS011;11573;51.334;3.244;2023-11-21T02:45:26;9.70;;;5.03;;
22812;SDS011;11573;51.334;3.244;2023-11-21T02:47:53;10.23;;;6.35;;
22812;SDS011;11573;51.334;3.244;2023-11-21T02:50:21;9.55;;;5.47;;
22812;SDS011;11573;51.334;3.244;2023-11-21T02:52:50;11.73;;;5.50;;
22812;SDS011;11573;51.334;3.244;2023-11-21T02:55:19;6.38;;;4.25;;
22812;SDS011;11573;51.334;3.244;2023-11-21T02:57:46;7.45;;;4.97;;
22812;SDS011;11573;51.334;3.244;2023-11-21T03:00:13;6.35;;;4.60;;
22812;SDS011;11573;51.334;3.244;2023-11-21T03:02:41;8.15;;;5.57;;
22812;SDS011;11573;51.334;3.244;2023-11-21T03:05:10;9.85;;;5.65;;
22812;SDS011;11573;51.334;3.244;2023-11-21T03:07:37;9.98;;;5.15;;
22812;SDS011;11573;51.334;3.244;2023-11-21T03:10:05;7.65;;;5.53;;
22812;SDS011;11573;51.334;3.244;2023-11-21T03:12:39;9.77;;;6.03;;
22812;SDS011;11573;51.334;3.244;2023-11-21T03:15:07;14.77;;;5.70;;
22812;SDS011;11573;51.334;3.244;2023-11-21T03:17:35;8.60;;;5.28;;
22812;SDS011;11573;51.334;3.244;2023-11-21T03:20:03;8.77;;;5.30;;
22812;SDS011;11573;51.334;3.244;2023-11-21T03:22:31;7.00;;;4.90;;
22812;SDS011;11573;51.334;3.244;2023-11-21T03:24:59;9.73;;;5.78;;
22812;SDS011;11573;51.334;3.244;2023-11-21T03:27:27;12.60;;;5.90;;
22812;SDS011;11573;51.334;3.244;2023-11-21T03:29:54;9.38;;;6.32;;
22812;SDS011;11573;51.334;3.244;2023-11-21T03:32:23;10.60;;;5.78;;
22812;SDS011;11573;51.334;3.244;2023-11-21T03:34:54;9.18;;;6.28;;
22812;SDS011;11573;51.334;3.244;2023-11-21T03:37:23;10.13;;;5.75;;
22812;SDS011;11573;51.334;3.244;2023-11-21T03:39:51;10.55;;;6.63;;
22812;SDS011;11573;51.334;3.244;2023-11-21T03:42:18;15.52;;;6.50;;
22812;SDS011;11573;51.334;3.244;2023-11-21T03:44:45;13.13;;;6.75;;
22812;SDS011;11573;51.334;3.244;2023-11-21T03:47:13;23.10;;;8.68;;
22812;SDS011;11573;51.334;3.244;2023-11-21T03:49:40;19.17;;;8.93;;
22812;SDS011;11573;51.334;3.244;2023-11-21T03:52:07;14.70;;;8.50;;
22812;SDS011;11573;51.334;3.244;2023-11-21T03:54:34;16.23;;;8.85;;
22812;SDS011;11573;51.334;3.244;2023-11-21T03:57:02;21.98;;;10.50;;
22812;SDS011;11573;51.334;3.244;2023-11-21T03:59:30;22.25;;;10.32;;
22812;SDS011;11573;51.334;3.244;2023-11-21T04:01:57;22.80;;;12.30;;
22812;SDS011;11573;51.334;3.244;2023-11-21T04:04:24;27.00;;;14.20;;
22812;SDS011;11573;51.334;3.244;2023-11-21T04:06:51;30.15;;;13.57;;
22812;SDS011;11573;51.334;3.244;2023-11-21T04:09:18;29.50;;;13.20;;
22812;SDS011;11573;51.334;3.244;2023-11-21T04:11:45;34.30;;;13.55;;
22812;SDS011;11573;51.334;3.244;2023-11-21T04:14:13;28.55;;;12.88;;
22812;SDS011;11573;51.334;3.244;2023-11-21T04:16:40;29.98;;;12.75;;
22812;SDS011;11573;51.334;3.244;2023-11-21T04:19:07;30.10;;;13.18;;
22812;SDS011;11573;51.334;3.244;2023-11-21T04:21:37;30.58;;;13.73;;
22812;SDS011;11573;51.334;3.244;2023-11-21T04:24:04;30.98;;;14.60;;
22812;SDS011;11573;51.334;3.244;2023-11-21T04:26:32;29.08;;;14.52;;
22812;SDS011;11573;51.334;3.244;2023-11-21T04:28:59;27.80;;;13.35;;
22812;SDS011;11573;51.334;3.244;2023-11-21T04:31:26;75.70;;;15.55;;
22812;SDS011;11573;51.334;3.244;2023-11-21T04:33:53;46.72;;;14.38;;
22812;SDS011;11573;51.334;3.244;2023-11-21T04:36:20;50.05;;;13.85;;
22812;SDS011;11573;51.334;3.244;2023-11-21T04:38:47;37.47;;;13.07;;
22812;SDS011;11573;51.334;3.244;2023-11-21T04:41:14;55.97;;;12.90;;
22812;SDS011;11573;51.334;3.244;2023-11-21T04:43:41;55.30;;;13.48;;
22812;SDS011;11573;51.334;3.244;2023-11-21T04:46:09;38.95;;;13.70;;
22812;SDS011;11573;51.334;3.244;2023-11-21T04:48:43;27.70;;;12.70;;
22812;SDS011;11573;51.334;3.244;2023-11-21T04:51:10;20.67;;;11.82;;
22812;SDS011;11573;51.334;3.244;2023-11-21T04:53:39;26.10;;;13.05;;
22812;SDS011;11573;51.334;3.244;2023-11-21T04:56:06;29.52;;;12.73;;
22812;SDS011;11573;51.334;3.244;2023-11-21T04:58:33;23.23;;;12.02;;
22812;SDS011;11573;51.334;3.244;2023-11-21T05:01:00;22.77;;;11.85;;
22812;SDS011;11573;51.334;3.244;2023-11-21T05:03:27;26.88;;;13.20;;
22812;SDS011;11573;51.334;3.244;2023-11-21T05:05:56;25.05;;;13.20;;
22812;SDS011;11573;51.334;3.244;2023-11-21T05:08:23;29.30;;;12.50;;
22812;SDS011;11573;51.334;3.244;2023-11-21T05:10:50;26.88;;;12.18;;
22812;SDS011;11573;51.334;3.244;2023-11-21T05:13:18;27.75;;;12.45;;
22812;SDS011;11573;51.334;3.244;2023-11-21T05:15:46;24.88;;;12.20;;
22812;SDS011;11573;51.334;3.244;2023-11-21T05:18:13;26.90;;;11.75;;
22812;SDS011;11573;51.334;3.244;2023-11-21T05:20:41;27.92;;;9.52;;
22812;SDS011;11573;51.334;3.244;2023-11-21T05:23:09;26.60;;;11.82;;
22812;SDS011;11573;51.334;3.244;2023-11-21T05:25:35;21.60;;;9.75;;
22812;SDS011;11573;51.334;3.244;2023-11-21T05:28:06;20.17;;;8.75;;
22812;SDS011;11573;51.334;3.244;2023-11-21T05:30:33;22.27;;;8.48;;
22812;SDS011;11573;51.334;3.244;2023-11-21T05:33:00;17.05;;;6.93;;
22812;SDS011;11573;51.334;3.244;2023-11-21T05:35:27;17.83;;;7.75;;
22812;SDS011;11573;51.334;3.244;2023-11-21T05:37:54;20.42;;;7.05;;
22812;SDS011;11573;51.334;3.244;2023-11-21T05:40:21;18.33;;;8.05;;
22812;SDS011;11573;51.334;3.244;2023-11-21T05:42:49;16.98;;;7.05;;
22812;SDS011;11573;51.334;3.244;2023-11-21T05:45:18;14.30;;;6.07;;
22812;SDS011;11573;51.334;3.244;2023-11-21T05:47:45;10.95;;;6.18;;
22812;SDS011;11573;51.334;3.244;2023-11-21T05:50:14;15.68;;;7.50;;
22812;SDS011;11573;51.334;3.244;2023-11-21T05:52:46;18.52;;;7.18;;
22812;SDS011;11573;51.334;3.244;2023-11-21T05:55:13;15.23;;;7.47;;
22812;SDS011;11573;51.334;3.244;2023-11-21T05:57:41;15.63;;;7.55;;
22812;SDS011;11573;51.334;3.244;2023-11-21T06:00:11;15.25;;;7.45;;
22812;SDS011;11573;51.334;3.244;2023-11-21T06:02:58;15.38;;;8.05;;
22812;SDS011;11573;51.334;3.244;2023-11-21T06:05:26;16.02;;;7.80;;
22812;SDS011;11573;51.334;3.244;2023-11-21T06:07:54;14.95;;;7.70;;
22812;SDS011;11573;51.334;3.244;2023-11-21T06:10:26;17.55;;;8.52;;
22812;SDS011;11573;51.334;3.244;2023-11-21T06:12:55;14.93;;;7.53;;
22812;SDS011;11573;51.334;3.244;2023-11-21T06:15:22;13.95;;;7.30;;
22812;SDS011;11573;51.334;3.244;2023-11-21T06:17:50;11.90;;;6.53;;
22812;SDS011;11573;51.334;3.244;2023-11-21T06:20:21;11.77;;;6.57;;
22812;SDS011;11573;51.334;3.244;2023-11-21T06:22:49;10.20;;;5.95;;
22812;SDS011;11573;51.334;3.244;2023-11-21T06:25:17;14.95;;;5.68;;
22812;SDS011;11573;51.334;3.244;2023-11-21T06:27:47;15.13;;;5.22;;
22812;SDS011;11573;51.334;3.244;2023-11-21T06:30:15;10.38;;;4.25;;
22812;SDS011;11573;51.334;3.244;2023-11-21T06:32:43;7.50;;;5.15;;
22812;SDS011;11573;51.334;3.244;2023-11-21T06:35:13;10.35;;;4.63;;
22812;SDS011;11573;51.334;3.244;2023-11-21T06:37:43;11.35;;;3.00;;
22812;SDS011;11573;51.334;3.244;2023-11-21T06:40:16;7.70;;;2.10;;
22812;SDS011;11573;51.334;3.244;2023-11-21T06:42:45;2.90;;;1.60;;
22812;SDS011;11573;51.334;3.244;2023-11-21T06:45:13;4.53;;;1.30;;
22812;SDS011;11573;51.334;3.244;2023-11-21T06:47:41;9.57;;;1.80;;
22812;SDS011;11573;51.334;3.244;2023-11-21T06:50:09;11.45;;;1.52;;
22812;SDS011;11573;51.334;3.244;2023-11-21T06:52:36;7.10;;;1.30;;
22812;SDS011;11573;51.334;3.244;2023-11-21T06:55:03;1.70;;;0.75;;
22812;SDS011;11573;51.334;3.244;2023-11-21T06:57:31;8.68;;;1.40;;
22812;SDS011;11573;51.334;3.244;2023-11-21T06:59:58;8.45;;;1.70;;
22812;SDS011;11573;51.334;3.244;2023-11-21T07:02:26;11.18;;;1.70;;
22812;SDS011;11573;51.334;3.244;2023-11-21T07:04:54;8.68;;;2.00;;
22812;SDS011;11573;51.334;3.244;2023-11-21T07:07:21;9.50;;;2.00;;
22812;SDS011;11573;51.334;3.244;2023-11-21T07:09:48;6.97;;;1.85;;
22812;SDS011;11573;51.334;3.244;2023-11-21T07:12:15;10.90;;;2.05;;
22812;SDS011;11573;51.334;3.244;2023-11-21T07:14:42;11.00;;;1.65;;
22812;SDS011;11573;51.334;3.244;2023-11-21T07:17:11;9.48;;;1.63;;
22812;SDS011;11573;51.334;3.244;2023-11-21T07:19:38;5.78;;;1.30;;
22812;SDS011;11573;51.334;3.244;2023-11-21T07:22:05;10.05;;;1.70;;
22812;SDS011;11573;51.334;3.244;2023-11-21T07:24:32;10.20;;;2.00;;
22812;SDS011;11573;51.334;3.244;2023-11-21T07:26:59;11.05;;;1.90;;
22812;SDS011;11573;51.334;3.244;2023-11-21T07:29:27;4.72;;;1.20;;
22812;SDS011;11573;51.334;3.244;2023-11-21T07:31:56;8.90;;;1.50;;
22812;SDS011;11573;51.334;3.244;2023-11-21T07:34:23;10.65;;;1.95;;
22812;SDS011;11573;51.334;3.244;2023-11-21T07:36:50;15.57;;;2.33;;
22812;SDS011;11573;51.334;3.244;2023-11-21T07:39:17;8.27;;;1.70;;
22812;SDS011;11573;51.334;3.244;2023-11-21T07:41:44;9.50;;;2.17;;
22812;SDS011;11573;51.334;3.244;2023-11-21T07:44:18;16.73;;;1.83;;
22812;SDS011;11573;51.334;3.244;2023-11-21T07:46:47;11.40;;;2.13;;
22812;SDS011;11573;51.334;3.244;2023-11-21T07:49:16;8.25;;;1.92;;
22812;SDS011;11573;51.334;3.244;2023-11-21T07:51:47;10.45;;;2.10;;
22812;SDS011;11573;51.334;3.244;2023-11-21T07:54:14;16.35;;;2.03;;
22812;SDS011;11573;51.334;3.244;2023-11-21T07:56:42;24.10;;;2.30;;
22812;SDS011;11573;51.334;3.244;2023-11-21T07:59:09;15.93;;;2.70;;
22812;SDS011;11573;51.334;3.244;2023-11-21T08:01:37;16.23;;;2.30;;
22812;SDS011;11573;51.334;3.244;2023-11-21T08:04:04;9.60;;;1.77;;
22812;SDS011;11573;51.334;3.244;2023-11-21T08:06:31;12.73;;;2.28;;
22812;SDS011;11573;51.334;3.244;2023-11-21T08:08:59;9.98;;;2.40;;
22812;SDS011;11573;51.334;3.244;2023-11-21T08:11:26;15.90;;;2.00;;
22812;SDS011;11573;51.334;3.244;2023-11-21T08:13:55;11.15;;;1.92;;
22812;SDS011;11573;51.334;3.244;2023-11-21T08:16:23;13.27;;;2.08;;
22812;SDS011;11573;51.334;3.244;2023-11-21T08:18:50;24.38;;;3.58;;
22812;SDS011;11573;51.334;3.244;2023-11-21T08:21:18;12.43;;;2.15;;
22812;SDS011;11573;51.334;3.244;2023-11-21T08:23:45;18.15;;;3.05;;
22812;SDS011;11573;51.334;3.244;2023-11-21T08:26:15;10.25;;;2.20;;
22812;SDS011;11573;51.334;3.244;2023-11-21T08:28:43;5.53;;;2.42;;
22812;SDS011;11573;51.334;3.244;2023-11-21T08:31:11;11.45;;;2.33;;
22812;SDS011;11573;51.334;3.244;2023-11-21T08:33:41;13.00;;;1.90;;
22812;SDS011;11573;51.334;3.244;2023-11-21T08:36:08;11.82;;;1.95;;
22812;SDS011;11573;51.334;3.244;2023-11-21T08:38:37;11.73;;;2.70;;
22812;SDS011;11573;51.334;3.244;2023-11-21T08:41:05;10.95;;;2.28;;
22812;SDS011;11573;51.334;3.244;2023-11-21T08:43:35;5.80;;;1.92;;
22812;SDS011;11573;51.334;3.244;2023-11-21T08:46:06;8.02;;;2.28;;
22812;SDS011;11573;51.334;3.244;2023-11-21T08:48:35;14.65;;;3.03;;
22812;SDS011;11573;51.334;3.244;2023-11-21T08:51:03;6.50;;;2.03;;
22812;SDS011;11573;51.334;3.244;2023-11-21T08:53:31;10.65;;;2.33;;
22812;SDS011;11573;51.334;3.244;2023-11-21T08:55:59;9.10;;;1.85;;
22812;SDS011;11573;51.334;3.244;2023-11-21T08:58:27;10.18;;;2.33;;
22812;SDS011;11573;51.334;3.244;2023-11-21T09:00:54;15.68;;;2.80;;
22812;SDS011;11573;51.334;3.244;2023-11-21T09:03:21;15.85;;;2.38;;
22812;SDS011;11573;51.334;3.244;2023-11-21T09:05:48;9.38;;;2.50;;
22812;SDS011;11573;51.334;3.244;2023-11-21T09:08:15;11.30;;;2.53;;
22812;SDS011;11573;51.334;3.244;2023-11-21T09:10:42;15.48;;;4.15;;
22812;SDS011;11573;51.334;3.244;2023-11-21T09:13:13;9.38;;;3.75;;
22812;SDS011;11573;51.334;3.244;2023-11-21T09:15:43;15.98;;;3.58;;
22812;SDS011;11573;51.334;3.244;2023-11-21T09:18:15;15.20;;;2.75;;
22812;SDS011;11573;51.334;3.244;2023-11-21T09:20:42;16.67;;;2.70;;
22812;SDS011;11573;51.334;3.244;2023-11-21T09:23:12;21.88;;;3.38;;
22812;SDS011;11573;51.334;3.244;2023-11-21T09:25:39;14.18;;;2.88;;
22812;SDS011;11573;51.334;3.244;2023-11-21T09:28:06;17.25;;;3.25;;
22812;SDS011;11573;51.334;3.244;2023-11-21T09:30:34;19.05;;;4.10;;
22812;SDS011;11573;51.334;3.244;2023-11-21T09:33:03;19.40;;;3.58;;
22812;SDS011;11573;51.334;3.244;2023-11-21T09:35:33;21.10;;;3.67;;
22812;SDS011;11573;51.334;3.244;2023-11-21T09:38:00;23.70;;;4.03;;
22812;SDS011;11573;51.334;3.244;2023-11-21T09:40:32;14.70;;;4.00;;
22812;SDS011;11573;51.334;3.244;2023-11-21T09:42:59;19.08;;;3.60;;
22812;SDS011;11573;51.334;3.244;2023-11-21T09:45:32;20.20;;;3.63;;
22812;SDS011;11573;51.334;3.244;2023-11-21T09:48:02;13.02;;;2.92;;
22812;SDS011;11573;51.334;3.244;2023-11-21T09:50:29;16.27;;;3.05;;
22812;SDS011;11573;51.334;3.244;2023-11-21T09:53:11;16.35;;;3.20;;
22812;SDS011;11573;51.334;3.244;2023-11-21T09:55:43;24.02;;;3.25;;
22812;SDS011;11573;51.334;3.244;2023-11-21T09:58:11;16.13;;;3.28;;
22812;SDS011;11573;51.334;3.244;2023-11-21T10:00:41;12.05;;;3.08;;
22812;SDS011;11573;51.334;3.244;2023-11-21T10:03:09;12.25;;;2.40;;
22812;SDS011;11573;51.334;3.244;2023-11-21T10:05:37;19.05;;;2.97;;
22812;SDS011;11573;51.334;3.244;2023-11-21T10:08:06;15.18;;;3.22;;
22812;SDS011;11573;51.334;3.244;2023-11-21T10:10:36;11.68;;;2.95;;
22812;SDS011;11573;51.334;3.244;2023-11-21T10:13:06;17.00;;;3.20;;
22812;SDS011;11573;51.334;3.244;2023-11-21T10:15:34;15.88;;;3.22;;
22812;SDS011;11573;51.334;3.244;2023-11-21T10:18:02;20.83;;;4.00;;
22812;SDS011;11573;51.334;3.244;2023-11-21T10:20:31;16.23;;;3.50;;
22812;SDS011;11573;51.334;3.244;2023-11-21T10:23:00;18.90;;;3.20;;
22812;SDS011;11573;51.334;3.244;2023-11-21T10:25:30;14.05;;;2.83;;
22812;SDS011;11573;51.334;3.244;2023-11-21T10:27:58;11.90;;;2.28;;
22812;SDS011;11573;51.334;3.244;2023-11-21T10:30:29;16.23;;;3.30;;
22812;SDS011;11573;51.334;3.244;2023-11-21T10:33:04;15.35;;;3.30;;
22812;SDS011;11573;51.334;3.244;2023-11-21T10:35:44;10.35;;;3.13;;
22812;SDS011;11573;51.334;3.244;2023-11-21T10:38:21;10.75;;;3.13;;
22812;SDS011;11573;51.334;3.244;2023-11-21T10:40:50;15.10;;;2.92;;
22812;SDS011;11573;51.334;3.244;2023-11-21T10:43:19;15.85;;;2.92;;
22812;SDS011;11573;51.334;3.244;2023-11-21T10:45:46;19.83;;;3.30;;
22812;SDS011;11573;51.334;3.244;2023-11-21T10:48:13;13.48;;;2.80;;
22812;SDS011;11573;51.334;3.244;2023-11-21T10:50:45;14.60;;;2.83;;
22812;SDS011;11573;51.334;3.244;2023-11-21T10:53:13;17.70;;;2.65;;
22812;SDS011;11573;51.334;3.244;2023-11-21T10:55:41;15.75;;;2.38;;
22812;SDS011;11573;51.334;3.244;2023-11-21T10:58:11;17.35;;;3.20;;
22812;SDS011;11573;51.334;3.244;2023-11-21T11:00:40;14.20;;;2.60;;
22812;SDS011;11573;51.334;3.244;2023-11-21T11:03:08;25.38;;;2.97;;
22812;SDS011;11573;51.334;3.244;2023-11-21T11:05:45;14.65;;;2.83;;
22812;SDS011;11573;51.334;3.244;2023-11-21T11:08:20;19.27;;;4.03;;
22812;SDS011;11573;51.334;3.244;2023-11-21T11:10:54;13.15;;;2.42;;
22812;SDS011;11573;51.334;3.244;2023-11-21T11:13:22;13.93;;;3.28;;
22812;SDS011;11573;51.334;3.244;2023-11-21T11:15:50;17.52;;;3.25;;
22812;SDS011;11573;51.334;3.244;2023-11-21T11:18:26;15.73;;;2.90;;
22812;SDS011;11573;51.334;3.244;2023-11-21T11:20:53;17.45;;;3.90;;
22812;SDS011;11573;51.334;3.244;2023-11-21T11:23:31;15.40;;;3.03;;
22812;SDS011;11573;51.334;3.244;2023-11-21T11:29:22;15.63;;;3.25;;
22812;SDS011;11573;51.334;3.244;2023-11-21T11:31:50;20.95;;;3.38;;
22812;SDS011;11573;51.334;3.244;2023-11-21T11:35:03;18.40;;;3.40;;
22812;SDS011;11573;51.334;3.244;2023-11-21T11:37:36;14.60;;;2.85;;
22812;SDS011;11573;51.334;3.244;2023-11-21T11:40:06;14.73;;;3.22;;
22812;SDS011;11573;51.334;3.244;2023-11-21T11:42:33;14.75;;;3.33;;
22812;SDS011;11573;51.334;3.244;2023-11-21T11:45:00;22.83;;;3.17;;
22812;SDS011;11573;51.334;3.244;2023-11-21T11:47:29;17.20;;;4.00;;
22812;SDS011;11573;51.334;3.244;2023-11-21T11:50:05;12.90;;;3.15;;
22812;SDS011;11573;51.334;3.244;2023-11-21T11:52:47;16.80;;;3.17;;
22812;SDS011;11573;51.334;3.244;2023-11-21T11:55:20;18.38;;;3.33;;
22812;SDS011;11573;51.334;3.244;2023-11-21T12:00:22;14.30;;;2.83;;
22812;SDS011;11573;51.334;3.244;2023-11-21T12:02:56;18.50;;;3.58;;
22812;SDS011;11573;51.334;3.244;2023-11-21T12:05:26;20.00;;;3.58;;
22812;SDS011;11573;51.334;3.244;2023-11-21T12:08:00;10.00;;;2.55;;
22812;SDS011;11573;51.334;3.244;2023-11-21T12:10:32;16.98;;;3.33;;
22812;SDS011;11573;51.334;3.244;2023-11-21T12:13:02;18.77;;;3.65;;
22812;SDS011;11573;51.334;3.244;2023-11-21T12:15:34;13.40;;;3.00;;
22812;SDS011;11573;51.334;3.244;2023-11-21T12:18:02;17.23;;;3.75;;
22812;SDS011;11573;51.334;3.244;2023-11-21T12:20:30;13.88;;;2.70;;
22812;SDS011;11573;51.334;3.244;2023-11-21T12:23:05;10.48;;;2.90;;
22812;SDS011;11573;51.334;3.244;2023-11-21T12:25:32;14.40;;;2.70;;
22812;SDS011;11573;51.334;3.244;2023-11-21T12:28:01;13.68;;;2.78;;
22812;SDS011;11573;51.334;3.244;2023-11-21T12:30:30;17.70;;;2.60;;
22812;SDS011;11573;51.334;3.244;2023-11-21T12:32:58;14.43;;;3.30;;
22812;SDS011;11573;51.334;3.244;2023-11-21T12:35:31;11.95;;;2.65;;
22812;SDS011;11573;51.334;3.244;2023-11-21T12:38:03;14.98;;;2.97;;
22812;SDS011;11573;51.334;3.244;2023-11-21T12:40:35;15.52;;;3.28;;
22812;SDS011;11573;51.334;3.244;2023-11-21T12:43:02;13.43;;;3.67;;
22812;SDS011;11573;51.334;3.244;2023-11-21T12:45:31;13.75;;;2.95;;
22812;SDS011;11573;51.334;3.244;2023-11-21T12:50:35;9.35;;;2.20;;
22812;SDS011;11573;51.334;3.244;2023-11-21T12:53:05;17.42;;;2.75;;
22812;SDS011;11573;51.334;3.244;2023-11-21T12:55:39;18.63;;;2.45;;
22812;SDS011;11573;51.334;3.244;2023-11-21T12:58:09;19.48;;;2.65;;
22812;SDS011;11573;51.334;3.244;2023-11-21T13:03:17;12.55;;;2.75;;
22812;SDS011;11573;51.334;3.244;2023-11-21T13:05:47;11.75;;;2.65;;
22812;SDS011;11573;51.334;3.244;2023-11-21T13:08:21;16.33;;;2.95;;
22812;SDS011;11573;51.334;3.244;2023-11-21T13:10:53;12.77;;;2.95;;
22812;SDS011;11573;51.334;3.244;2023-11-21T13:13:24;14.32;;;2.95;;
22812;SDS011;11573;51.334;3.244;2023-11-21T13:15:58;20.02;;;3.45;;
22812;SDS011;11573;51.334;3.244;2023-11-21T13:18:32;21.13;;;3.28;;
22812;SDS011;11573;51.334;3.244;2023-11-21T13:21:01;8.57;;;2.63;;
22812;SDS011;11573;51.334;3.244;2023-11-21T13:23:35;10.75;;;2.45;;
22812;SDS011;11573;51.334;3.244;2023-11-21T13:26:04;9.45;;;2.42;;
22812;SDS011;11573;51.334;3.244;2023-11-21T13:28:33;12.60;;;3.13;;
22812;SDS011;11573;51.334;3.244;2023-11-21T13:31:02;16.85;;;3.95;;
22812;SDS011;11573;51.334;3.244;2023-11-21T13:33:36;11.05;;;2.65;;
22812;SDS011;11573;51.334;3.244;2023-11-21T13:36:09;10.93;;;2.60;;
22812;SDS011;11573;51.334;3.244;2023-11-21T13:38:37;13.07;;;2.53;;
22812;SDS011;11573;51.334;3.244;2023-11-21T13:41:09;12.75;;;2.47;;
22812;SDS011;11573;51.334;3.244;2023-11-21T13:43:39;9.25;;;1.83;;
22812;SDS011;11573;51.334;3.244;2023-11-21T13:46:06;11.55;;;2.33;;
22812;SDS011;11573;51.334;3.244;2023-11-21T13:48:40;11.95;;;2.17;;
22812;SDS011;11573;51.334;3.244;2023-11-21T13:51:09;7.90;;;2.00;;
22812;SDS011;11573;51.334;3.244;2023-11-21T13:53:44;12.40;;;2.27;;
22812;SDS011;11573;51.334;3.244;2023-11-21T13:56:17;7.53;;;2.20;;
22812;SDS011;11573;51.334;3.244;2023-11-21T13:58:48;15.15;;;2.80;;
22812;SDS011;11573;51.334;3.244;2023-11-21T14:01:23;15.10;;;2.33;;
22812;SDS011;11573;51.334;3.244;2023-11-21T14:04:00;11.77;;;2.30;;
22812;SDS011;11573;51.334;3.244;2023-11-21T14:06:39;11.18;;;2.53;;
22812;SDS011;11573;51.334;3.244;2023-11-21T14:09:15;15.68;;;2.42;;
22812;SDS011;11573;51.334;3.244;2023-11-21T14:11:49;16.73;;;2.42;;
22812;SDS011;11573;51.334;3.244;2023-11-21T14:14:23;14.82;;;2.30;;
22812;SDS011;11573;51.334;3.244;2023-11-21T14:16:52;8.52;;;2.60;;
22812;SDS011;11573;51.334;3.244;2023-11-21T14:19:19;12.73;;;2.30;;
22812;SDS011;11573;51.334;3.244;2023-11-21T14:21:47;15.85;;;2.60;;
22812;SDS011;11573;51.334;3.244;2023-11-21T14:24:17;17.60;;;2.70;;
22812;SDS011;11573;51.334;3.244;2023-11-21T14:26:45;7.60;;;2.65;;
22812;SDS011;11573;51.334;3.244;2023-11-21T14:29:13;17.85;;;3.47;;
22812;SDS011;11573;51.334;3.244;2023-11-21T14:31:43;11.63;;;2.38;;
22812;SDS011;11573;51.334;3.244;2023-11-21T14:34:11;8.23;;;2.03;;
22812;SDS011;11573;51.334;3.244;2023-11-21T14:36:39;13.18;;;2.40;;
22812;SDS011;11573;51.334;3.244;2023-11-21T14:39:06;9.75;;;2.33;;
22812;SDS011;11573;51.334;3.244;2023-11-21T14:41:35;10.02;;;2.47;;
22812;SDS011;11573;51.334;3.244;2023-11-21T14:44:04;12.05;;;2.38;;
22812;SDS011;11573;51.334;3.244;2023-11-21T14:46:34;19.80;;;3.63;;
22812;SDS011;11573;51.334;3.244;2023-11-21T14:49:03;10.18;;;2.30;;
22812;SDS011;11573;51.334;3.244;2023-11-21T14:51:49;11.55;;;2.15;;
22812;SDS011;11573;51.334;3.244;2023-11-21T14:54:30;15.63;;;2.42;;
22812;SDS011;11573;51.334;3.244;2023-11-21T14:57:09;9.02;;;1.90;;
22812;SDS011;11573;51.334;3.244;2023-11-21T14:59:48;11.52;;;2.17;;